Athens, LA

5:41 PM CDT on July 13, 2014 (GMT -0500)
RAWS CANEY LA US (MCANL1) Elev 229 ft | 32.80 °N, 93.07 °W | Change Station

Current weather conditions updated 43 minutes ago

Clear
Clear
98 °F
Feels Like 102 °F
N
7
Wind Variable Wind from ESE
Gusts 11.0 mph

Tomorrow is forecast to be nearly the same temperature as today. Late night thunderstorms tomorrow night.

Today
High -- | Low -- °F
--% Chance of Precip.
Yesterday
High -- | Low -- °F
Precip. -- in
6:13 AM 8:21 PM
Full, 97% visible
Pressure 30.03 in
Visibility 10.0 miles
Clouds Clear
Heat Index 102 °F
Dew Point 66 °F
Humidity 36%
Rainfall 0.00 in
Snow Depth Not available.
UV 3 out of 12
Pollen 3.20 out of 12
Air Quality Not available.
Flu Activity Sporadic
METAR KRSN 132235Z AUTO 15005KT 10SM CLR 35/21 A3003 RMK AO2 T03450210

More Conditions Fewer Conditions

Pressure 30.03 in
Visibility 10.0 miles
Clouds Clear
Heat Index 102 °F
Dew Point 66 °F
Humidity 36%
Rainfall 0.00 in
Snow Depth Not available.
UV 3 out of 12
Pollen 3.20 out of 12
Air Quality Not available.
Flu Activity Sporadic
METAR KRSN 132235Z AUTO 15005KT 10SM CLR 35/21 A3003 RMK AO2 T03450210

More Conditions Fewer Conditions

Nowcast | as of 4:56 PM CDT on July 13, 2014

Scattered showers and thunderstorms will continue development around the region. Movement is to the southwest at 25 mph. Main activity is near the Olla...Winnfield...Colfax...Toledo Bend...and Zavalla areas. Elsewhere...isolated development is possible. Heavy downpours and gusty winds will be likely with stronger storms.

×

10-Day Weather Forecast

Almanac

Astronomy

Jul. 13, 2014 Rise Set
Actual Time 6:13 AM CDT 8:21 PM CDT
Civil Twilight 5:45 AM CDT 8:49 PM CDT
Nautical Twilight 5:11 AM CDT 9:23 PM CDT
Astronomical Twilight 4:34 AM CDT 10:00 PM CDT
Moon 9:19 PM CDT 7:37 AM CDT
Length of Visible Light 15h 04m
Length of Day
14h 08m
Tomorrow will be 0m 57s shorter.
Full, 97% of the Moon is Illuminated
Today
Full
Jul 18
Last Quarter
Jul 26
New
Aug 3
First Quarter
Aug 10
Full

Today's Extremes

State Highs State Lows

Community

WunderPhotos

Upload Photos

1,733,431 photos uploaded!

Nearby

Snow Depth

Station Depth Elevation
No new snow has been reported.

Earthquake Activity

City Distance Mag. Time & Date
No recent earthquake activity has been reported nearby.
Minimum magnitude displayed is 2.5.

Coastal Water Temperatures

Place Temperature
No Stations Reporting

Nearby Weather Stations

Station Location Temp. Heat Index Dew Point Humidity Wind Precip. Elev Updated Type
RAWS CANEY LA, Homer, LA 98 °F 102 °F 66 °F 36% ESE  at  7 mph 0.00 in / hr 229 ft 4:58 PM CDT MADIS
Germantown, Minden, LA 95.9 °F 103 °F 70 °F 44% SSW  at  0.0 mph - / hr 384 ft 5:34 PM CDT Normal

Show More Stations Show Fewer Stations